GLD1386 TGPY-TNCM
Flight info
| Callsign | GLD1386 |
|---|---|
| Flight time | N/A |
| Altitude | 32000 |
| Route | PPR UA312 ANU UB520 ELOPO |
| Aircraft | B738/M-SDE2E3FGHIRWXY/LB1 |
Departure
| Time | 2026-05-01 13:53 |
|---|---|
| Airport | Maurice Bishop International Airport (TGPY) |
Arrival
| Time | N/A |
|---|---|
| Airport | Princess Juliana International Airport (TNCM) |
| Time | Latitude | Longitude | Altitude | Speed | Heading |
|---|---|---|---|---|---|
| 2026-05-01 13:07 | 12.00653 | -61.78533 | 50 ft | 0 kts | 0° |
| 2026-05-01 13:38 | 12.00648 | -61.78533 | 50 ft | 2 kts | 0° |
| 2026-05-01 13:38 | 12.00633 | -61.78533 | 50 ft | 2 kts | 0° |
| 2026-05-01 13:39 | 12.00617 | -61.78533 | 50 ft | 2 kts | 0° |
| 2026-05-01 13:39 | 12.00607 | -61.78534 | 50 ft | 2 kts | 350° |
| 2026-05-01 13:39 | 12.00593 | -61.78525 | 50 ft | 2 kts | 309° |
| 2026-05-01 13:39 | 12.00587 | -61.78511 | 50 ft | 1 kts | 274° |
| 2026-05-01 13:40 | 12.00587 | -61.78505 | 50 ft | 1 kts | 267° |
| 2026-05-01 13:40 | 12.00587 | -61.78503 | 50 ft | 0 kts | 268° |
| 2026-05-01 13:44 | 12.00587 | -61.78509 | 50 ft | 2 kts | 268° |
| 2026-05-01 13:44 | 12.00586 | -61.78536 | 50 ft | 4 kts | 269° |
| 2026-05-01 13:44 | 12.00579 | -61.78576 | 50 ft | 5 kts | 244° |
| 2026-05-01 13:45 | 12.00544 | -61.78595 | 50 ft | 6 kts | 186° |
| 2026-05-01 13:45 | 12.00503 | -61.78596 | 50 ft | 2 kts | 179° |
| 2026-05-01 13:45 | 12.00500 | -61.78596 | 50 ft | 0 kts | 179° |
| 2026-05-01 13:46 | 12.00491 | -61.78595 | 50 ft | 3 kts | 179° |
| 2026-05-01 13:46 | 12.00461 | -61.78595 | 50 ft | 5 kts | 179° |
| 2026-05-01 13:46 | 12.00422 | -61.78602 | 50 ft | 5 kts | 209° |
| 2026-05-01 13:47 | 12.00407 | -61.78641 | 50 ft | 6 kts | 268° |
| 2026-05-01 13:47 | 12.00406 | -61.78695 | 50 ft | 7 kts | 269° |
| 2026-05-01 13:47 | 12.00406 | -61.78754 | 50 ft | 8 kts | 270° |
| 2026-05-01 13:47 | 12.00406 | -61.78817 | 50 ft | 9 kts | 270° |
| 2026-05-01 13:48 | 12.00406 | -61.78885 | 50 ft | 9 kts | 271° |
| 2026-05-01 13:48 | 12.00408 | -61.78960 | 50 ft | 12 kts | 271° |
| 2026-05-01 13:48 | 12.00409 | -61.79063 | 50 ft | 16 kts | 270° |
| 2026-05-01 13:48 | 12.00410 | -61.79197 | 50 ft | 20 kts | 270° |
| 2026-05-01 13:49 | 12.00410 | -61.79364 | 50 ft | 24 kts | 270° |
| 2026-05-01 13:49 | 12.00410 | -61.79558 | 50 ft | 28 kts | 269° |
| 2026-05-01 13:49 | 12.00414 | -61.79735 | 50 ft | 15 kts | 272° |
| 2026-05-01 13:49 | 12.00449 | -61.79813 | 50 ft | 10 kts | 302° |
| 2026-05-01 13:50 | 12.00426 | -61.79852 | 50 ft | 7 kts | 148° |
| 2026-05-01 13:50 | 12.00413 | -61.79814 | 50 ft | 2 kts | 89° |
| 2026-05-01 13:50 | 12.00413 | -61.79812 | 50 ft | 0 kts | 89° |
| 2026-05-01 13:52 | 12.00413 | -61.79810 | 50 ft | 3 kts | 89° |
| 2026-05-01 13:52 | 12.00411 | -61.79543 | 50 ft | 71 kts | 89° |
| 2026-05-01 13:52 | 12.00409 | -61.78811 | 51 ft | 130 kts | 90° |
| 2026-05-01 13:53 | 12.00425 | -61.77700 | 88 ft | 175 kts | 90° |
| 2026-05-01 13:53 | 12.00536 | -61.75155 | 1607 ft | 173 kts | 89° |
| 2026-05-01 13:53 | 12.00603 | -61.73870 | 2000 ft | 190 kts | 89° |
| 2026-05-01 13:54 | 12.00674 | -61.72405 | 2353 ft | 212 kts | 89° |
| 2026-05-01 13:54 | 12.00742 | -61.70862 | 3021 ft | 220 kts | 89° |
| 2026-05-01 13:54 | 12.01107 | -61.69243 | 3484 ft | 241 kts | 58° |
| 2026-05-01 13:54 | 12.02447 | -61.68139 | 4248 ft | 250 kts | 20° |
| 2026-05-01 13:55 | 12.04246 | -61.67948 | 5074 ft | 255 kts | 359° |
| 2026-05-01 13:55 | 12.06058 | -61.68111 | 5845 ft | 259 kts | 355° |
| 2026-05-01 13:55 | 12.07879 | -61.68327 | 6624 ft | 262 kts | 356° |
| 2026-05-01 13:55 | 12.09795 | -61.68359 | 7042 ft | 280 kts | 5° |
| 2026-05-01 13:56 | 12.11766 | -61.68224 | 7781 ft | 285 kts | 5° |
| 2026-05-01 13:56 | 12.13788 | -61.68096 | 8566 ft | 289 kts | 4° |
| 2026-05-01 13:56 | 12.15817 | -61.67998 | 9379 ft | 292 kts | 4° |
| 2026-05-01 13:56 | 12.17893 | -61.67916 | 10192 ft | 295 kts | 3° |
| 2026-05-01 13:57 | 12.20052 | -61.67838 | 10539 ft | 317 kts | 3° |
| 2026-05-01 13:57 | 12.21563 | -61.67785 | 10662 ft | 334 kts | 2° |
| 2026-05-01 13:57 | 12.24775 | -61.67677 | 11528 ft | 346 kts | 2° |
| 2026-05-01 13:57 | 12.27256 | -61.67594 | 12328 ft | 351 kts | 2° |
| 2026-05-01 13:58 | 12.29714 | -61.67513 | 13154 ft | 355 kts | 2° |
| 2026-05-01 13:58 | 12.32242 | -61.67429 | 13985 ft | 359 kts | 3° |
| 2026-05-01 13:58 | 12.34774 | -61.67344 | 14817 ft | 362 kts | 3° |
| 2026-05-01 13:58 | 12.37354 | -61.67258 | 15649 ft | 366 kts | 3° |
| 2026-05-01 13:59 | 12.39963 | -61.67170 | 16462 ft | 369 kts | 3° |
| 2026-05-01 13:59 | 12.42629 | -61.67081 | 17265 ft | 373 kts | 3° |
| 2026-05-01 13:59 | 12.45198 | -61.66995 | 18010 ft | 376 kts | 3° |
| 2026-05-01 13:59 | 12.47837 | -61.66907 | 18754 ft | 380 kts | 3° |
| 2026-05-01 14:00 | 12.50546 | -61.66816 | 19502 ft | 383 kts | 4° |
| 2026-05-01 14:00 | 12.53264 | -61.66725 | 20228 ft | 386 kts | 4° |
| 2026-05-01 14:00 | 12.56017 | -61.66633 | 20939 ft | 390 kts | 4° |
| 2026-05-01 14:00 | 12.58763 | -61.66540 | 21616 ft | 393 kts | 4° |
| 2026-05-01 14:01 | 12.61509 | -61.66448 | 22281 ft | 396 kts | 4° |
| 2026-05-01 14:01 | 12.64318 | -61.66354 | 22932 ft | 399 kts | 4° |
| 2026-05-01 14:01 | 12.67184 | -61.66257 | 23574 ft | 402 kts | 4° |
| 2026-05-01 14:01 | 12.69891 | -61.66167 | 24162 ft | 405 kts | 4° |
| 2026-05-01 14:02 | 12.72749 | -61.66071 | 24773 ft | 408 kts | 4° |
| 2026-05-01 14:02 | 12.75605 | -61.65975 | 25369 ft | 411 kts | 4° |
| 2026-05-01 14:02 | 12.78438 | -61.65879 | 25934 ft | 414 kts | 4° |
| 2026-05-01 14:02 | 12.81305 | -61.65783 | 26491 ft | 416 kts | 4° |
| 2026-05-01 14:03 | 12.84187 | -61.65686 | 27031 ft | 419 kts | 4° |
| 2026-05-01 14:03 | 12.86996 | -61.65592 | 27540 ft | 421 kts | 4° |
| 2026-05-01 14:03 | 12.89946 | -61.65493 | 28056 ft | 424 kts | 4° |
| 2026-05-01 14:03 | 12.92855 | -61.65395 | 28550 ft | 426 kts | 4° |
| 2026-05-01 14:04 | 12.95380 | -61.65310 | 28961 ft | 428 kts | 4° |
| 2026-05-01 14:04 | 12.98685 | -61.65199 | 29537 ft | 429 kts | 4° |
| 2026-05-01 14:04 | 13.01654 | -61.65099 | 30065 ft | 430 kts | 4° |
| 2026-05-01 14:04 | 13.03626 | -61.65033 | 30394 ft | 430 kts | 4° |
| 2026-05-01 14:05 | 13.07579 | -61.64901 | 31168 ft | 427 kts | 4° |
| 2026-05-01 14:05 | 13.10535 | -61.64802 | 31735 ft | 425 kts | 4° |
| 2026-05-01 14:05 | 13.13513 | -61.64702 | 32003 ft | 427 kts | 4° |
| 2026-05-01 14:05 | 13.16464 | -61.64601 | 31994 ft | 426 kts | 4° |
| 2026-05-01 14:06 | 13.22343 | -61.64404 | 32001 ft | 422 kts | 4° |
| 2026-05-01 14:06 | 13.28204 | -61.64206 | 32000 ft | 423 kts | 4° |
| 2026-05-01 14:07 | 13.34070 | -61.64008 | 32001 ft | 423 kts | 4° |
| 2026-05-01 14:08 | 13.42805 | -61.63714 | 32000 ft | 423 kts | 4° |
| 2026-05-01 14:08 | 13.48701 | -61.63514 | 31999 ft | 423 kts | 4° |
| 2026-05-01 14:09 | 13.54571 | -61.63316 | 32000 ft | 423 kts | 4° |
| 2026-05-01 14:09 | 13.60345 | -61.63121 | 32000 ft | 423 kts | 4° |
| 2026-05-01 14:10 | 13.66257 | -61.62921 | 31999 ft | 423 kts | 4° |
| 2026-05-01 14:10 | 13.72184 | -61.62720 | 32000 ft | 423 kts | 4° |
| 2026-05-01 14:11 | 13.78170 | -61.62518 | 32000 ft | 423 kts | 4° |
| 2026-05-01 14:11 | 13.86787 | -61.62226 | 32000 ft | 423 kts | 4° |
| 2026-05-01 14:12 | 13.92724 | -61.62025 | 32000 ft | 423 kts | 4° |
| 2026-05-01 14:12 | 13.98618 | -61.61825 | 32017 ft | 424 kts | 4° |
| 2026-05-01 14:13 | 14.03501 | -61.61659 | 32034 ft | 424 kts | 4° |
| 2026-05-01 14:13 | 14.10379 | -61.61426 | 32054 ft | 425 kts | 4° |
| 2026-05-01 14:14 | 14.16275 | -61.61225 | 32054 ft | 425 kts | 4° |
| 2026-05-01 14:14 | 14.22161 | -61.61026 | 32055 ft | 425 kts | 4° |
| 2026-05-01 14:15 | 14.28064 | -61.60825 | 32054 ft | 425 kts | 4° |
| 2026-05-01 14:15 | 14.33928 | -61.60625 | 32054 ft | 425 kts | 4° |
| 2026-05-01 14:16 | 14.39818 | -61.60425 | 32054 ft | 425 kts | 4° |
| 2026-05-01 14:16 | 14.45674 | -61.60226 | 32054 ft | 425 kts | 4° |
| 2026-05-01 14:17 | 14.51526 | -61.60026 | 32054 ft | 425 kts | 4° |
| 2026-05-01 14:17 | 14.57347 | -61.59828 | 32054 ft | 425 kts | 4° |
| 2026-05-01 14:18 | 14.63196 | -61.59628 | 32054 ft | 425 kts | 4° |
| 2026-05-01 14:18 | 14.68101 | -61.59461 | 32054 ft | 425 kts | 4° |
| 2026-05-01 14:19 | 14.74969 | -61.59227 | 32034 ft | 426 kts | 4° |
| 2026-05-01 14:19 | 14.80846 | -61.59026 | 32020 ft | 425 kts | 4° |
| 2026-05-01 14:20 | 14.89686 | -61.58724 | 32020 ft | 425 kts | 4° |
| 2026-05-01 14:21 | 14.95580 | -61.58522 | 32020 ft | 423 kts | 4° |
| 2026-05-01 14:21 | 15.01422 | -61.58322 | 32020 ft | 421 kts | 4° |
| 2026-05-01 14:22 | 15.10153 | -61.58024 | 32020 ft | 420 kts | 4° |
| 2026-05-01 14:22 | 15.15956 | -61.57824 | 32020 ft | 420 kts | 4° |
| 2026-05-01 14:23 | 15.21781 | -61.57625 | 32020 ft | 420 kts | 4° |
| 2026-05-01 14:23 | 15.27562 | -61.57426 | 32020 ft | 420 kts | 4° |
| 2026-05-01 14:24 | 15.33399 | -61.57226 | 32020 ft | 420 kts | 4° |
| 2026-05-01 14:24 | 15.39186 | -61.57027 | 32020 ft | 420 kts | 4° |
| 2026-05-01 14:25 | 15.44986 | -61.56828 | 32020 ft | 420 kts | 4° |
| 2026-05-01 14:25 | 15.50779 | -61.56629 | 32020 ft | 420 kts | 4° |
| 2026-05-01 14:26 | 15.59437 | -61.56331 | 32020 ft | 420 kts | 4° |
| 2026-05-01 14:27 | 15.65172 | -61.56133 | 32020 ft | 420 kts | 4° |
| 2026-05-01 14:27 | 15.70862 | -61.55938 | 32020 ft | 420 kts | 4° |
| 2026-05-01 14:28 | 15.79482 | -61.55640 | 32020 ft | 420 kts | 4° |
| 2026-05-01 14:28 | 15.85189 | -61.55443 | 32020 ft | 420 kts | 4° |
| 2026-05-01 14:29 | 15.90966 | -61.55244 | 32020 ft | 420 kts | 4° |
| 2026-05-01 14:30 | 16.02360 | -61.54850 | 32020 ft | 420 kts | 4° |
| 2026-05-01 14:31 | 16.10960 | -61.54553 | 32020 ft | 420 kts | 4° |
| 2026-05-01 14:31 | 16.16701 | -61.54354 | 32020 ft | 420 kts | 4° |
| 2026-05-01 14:32 | 16.22481 | -61.54210 | 32019 ft | 421 kts | 1° |
| 2026-05-01 14:32 | 16.28242 | -61.54794 | 32018 ft | 424 kts | 351° |
| 2026-05-01 14:33 | 16.33879 | -61.56307 | 32020 ft | 426 kts | 347° |
| 2026-05-01 14:33 | 16.39557 | -61.57976 | 32020 ft | 426 kts | 347° |
| 2026-05-01 14:34 | 16.45214 | -61.59661 | 32020 ft | 426 kts | 347° |
| 2026-05-01 14:34 | 16.50866 | -61.61355 | 32020 ft | 426 kts | 347° |
| 2026-05-01 14:35 | 16.56499 | -61.63049 | 32020 ft | 426 kts | 347° |
| 2026-05-01 14:35 | 16.62148 | -61.64751 | 32020 ft | 426 kts | 347° |
| 2026-05-01 14:36 | 16.67780 | -61.66450 | 32024 ft | 426 kts | 347° |
| 2026-05-01 14:36 | 16.73435 | -61.68158 | 32033 ft | 426 kts | 347° |
| 2026-05-01 14:37 | 16.79074 | -61.69863 | 32043 ft | 426 kts | 347° |
| 2026-05-01 14:37 | 16.84758 | -61.71582 | 32047 ft | 426 kts | 347° |
| 2026-05-01 14:38 | 16.90402 | -61.73290 | 32047 ft | 426 kts | 347° |
| 2026-05-01 14:38 | 16.96091 | -61.75013 | 32047 ft | 426 kts | 347° |
| 2026-05-01 14:39 | 17.01759 | -61.76732 | 32047 ft | 423 kts | 347° |
| 2026-05-01 14:39 | 17.07348 | -61.78536 | 32045 ft | 422 kts | 343° |
| 2026-05-01 14:40 | 17.12531 | -61.81439 | 32045 ft | 430 kts | 327° |
| 2026-05-01 14:40 | 17.14692 | -61.83615 | 32052 ft | 439 kts | 316° |
| 2026-05-01 14:40 | 17.16614 | -61.86094 | 32051 ft | 443 kts | 313° |
| 2026-05-01 14:41 | 17.20309 | -61.91226 | 32046 ft | 443 kts | 312° |
| 2026-05-01 14:41 | 17.23981 | -61.96420 | 32047 ft | 443 kts | 312° |
| 2026-05-01 14:42 | 17.27621 | -62.01606 | 32047 ft | 444 kts | 312° |
| 2026-05-01 14:42 | 17.31240 | -62.06782 | 32046 ft | 444 kts | 312° |
| 2026-05-01 14:43 | 17.34887 | -62.12012 | 32047 ft | 444 kts | 311° |
| 2026-05-01 14:43 | 17.38507 | -62.17212 | 32047 ft | 444 kts | 311° |
| 2026-05-01 14:44 | 17.42134 | -62.22430 | 32047 ft | 444 kts | 311° |
| 2026-05-01 14:44 | 17.47574 | -62.30265 | 32047 ft | 444 kts | 311° |
| 2026-05-01 14:45 | 17.52983 | -62.38067 | 32047 ft | 444 kts | 311° |
| 2026-05-01 14:46 | 17.56628 | -62.43329 | 32047 ft | 444 kts | 311° |
| 2026-05-01 14:46 | 17.62039 | -62.51162 | 32047 ft | 445 kts | 311° |
| 2026-05-01 14:47 | 17.65217 | -62.56768 | 32045 ft | 453 kts | 300° |
| 2026-05-01 14:48 | 17.68783 | -62.65934 | 32047 ft | 456 kts | 297° |
| 2026-05-01 14:48 | 17.72241 | -62.75233 | 32047 ft | 456 kts | 297° |
| 2026-05-01 14:49 | 17.76757 | -62.87508 | 32047 ft | 455 kts | 297° |
| 2026-05-01 14:50 | 17.81230 | -62.99735 | 32047 ft | 452 kts | 296° |
| 2026-05-01 14:51 | 17.84577 | -63.08912 | 32047 ft | 450 kts | 296° |
| 2026-05-01 14:52 | 17.87896 | -63.18024 | 32044 ft | 446 kts | 296° |
| 2026-05-01 14:52 | 17.90622 | -63.23416 | 32045 ft | 391 kts | 312° |
| 2026-05-01 14:53 | 17.92340 | -63.25457 | 32045 ft | 363 kts | 322° |
| 2026-05-01 14:53 | 17.94304 | -63.27022 | 32048 ft | 348 kts | 335° |
| 2026-05-01 14:53 | 17.96482 | -63.28054 | 32059 ft | 349 kts | 345° |
| 2026-05-01 14:54 | 18.01191 | -63.29267 | 32040 ft | 349 kts | 357° |
| 2026-05-01 14:54 | 18.03572 | -63.29098 | 32041 ft | 342 kts | 17° |
| 2026-05-01 14:54 | 18.05692 | -63.28016 | 32049 ft | 343 kts | 37° |
| 2026-05-01 14:54 | 18.07291 | -63.26156 | 32048 ft | 350 kts | 57° |
| 2026-05-01 14:55 | 18.08166 | -63.23773 | 31896 ft | 357 kts | 76° |
| 2026-05-01 14:55 | 18.08253 | -63.21198 | 31112 ft | 368 kts | 95° |
| 2026-05-01 14:55 | 18.07438 | -63.18623 | 30316 ft | 379 kts | 115° |
| 2026-05-01 14:55 | 18.05871 | -63.16509 | 29594 ft | 387 kts | 133° |
| 2026-05-01 14:56 | 18.03743 | -63.14772 | 28815 ft | 393 kts | 144° |
| 2026-05-01 14:56 | 18.01321 | -63.13401 | 28002 ft | 398 kts | 153° |
| 2026-05-01 14:56 | 17.98758 | -63.12422 | 27212 ft | 402 kts | 161° |
| 2026-05-01 14:56 | 17.96049 | -63.11827 | 26411 ft | 405 kts | 170° |
| 2026-05-01 14:57 | 17.93220 | -63.11643 | 25597 ft | 407 kts | 178° |
| 2026-05-01 14:57 | 17.87739 | -63.12597 | 24272 ft | 402 kts | 198° |
| 2026-05-01 14:57 | 17.85217 | -63.13820 | 23603 ft | 399 kts | 211° |
| 2026-05-01 14:58 | 17.83077 | -63.15600 | 22942 ft | 396 kts | 225° |
| 2026-05-01 14:58 | 17.81304 | -63.17784 | 22307 ft | 391 kts | 234° |
| 2026-05-01 14:58 | 17.79818 | -63.20117 | 21658 ft | 386 kts | 239° |
| 2026-05-01 14:58 | 17.78521 | -63.22571 | 21006 ft | 382 kts | 244° |
| 2026-05-01 14:59 | 17.77461 | -63.25097 | 20369 ft | 378 kts | 250° |
| 2026-05-01 14:59 | 17.76629 | -63.27629 | 19746 ft | 373 kts | 254° |
| 2026-05-01 14:59 | 17.75943 | -63.30228 | 19111 ft | 369 kts | 257° |
| 2026-05-01 14:59 | 17.75349 | -63.32834 | 18482 ft | 365 kts | 258° |
| 2026-05-01 15:00 | 17.74564 | -63.37974 | 17216 ft | 357 kts | 272° |
| 2026-05-01 15:00 | 17.74863 | -63.40537 | 16589 ft | 351 kts | 285° |
| 2026-05-01 15:00 | 17.75640 | -63.42931 | 15959 ft | 346 kts | 296° |
| 2026-05-01 15:01 | 17.76818 | -63.45100 | 15322 ft | 340 kts | 307° |
| 2026-05-01 15:01 | 17.78327 | -63.46977 | 14691 ft | 335 kts | 317° |
| 2026-05-01 15:01 | 17.80084 | -63.48501 | 14069 ft | 331 kts | 328° |
| 2026-05-01 15:01 | 17.82064 | -63.49672 | 13439 ft | 326 kts | 338° |
| 2026-05-01 15:02 | 17.84164 | -63.50441 | 12816 ft | 322 kts | 348° |
| 2026-05-01 15:02 | 17.84913 | -63.50614 | 12600 ft | 320 kts | 351° |
| 2026-05-01 15:02 | 17.88555 | -63.50783 | 11559 ft | 313 kts | 8° |
| 2026-05-01 15:02 | 17.90659 | -63.50388 | 10952 ft | 310 kts | 15° |
| 2026-05-01 15:03 | 17.92734 | -63.49825 | 10344 ft | 307 kts | 16° |
| 2026-05-01 15:03 | 17.94738 | -63.49210 | 9731 ft | 304 kts | 24° |
| 2026-05-01 15:03 | 17.96442 | -63.48084 | 9649 ft | 278 kts | 44° |
| 2026-05-01 15:03 | 17.97690 | -63.46626 | 9723 ft | 264 kts | 55° |
| 2026-05-01 15:04 | 17.98624 | -63.45016 | 9383 ft | 258 kts | 65° |
| 2026-05-01 15:04 | 17.99251 | -63.43230 | 8643 ft | 266 kts | 76° |
| 2026-05-01 15:04 | 17.99638 | -63.41322 | 7912 ft | 273 kts | 81° |
| 2026-05-01 15:04 | 17.99939 | -63.39361 | 7235 ft | 277 kts | 82° |
| 2026-05-01 15:05 | 18.00232 | -63.37352 | 6497 ft | 282 kts | 82° |
| 2026-05-01 15:05 | 18.00536 | -63.35304 | 5698 ft | 288 kts | 82° |
| 2026-05-01 15:05 | 18.00850 | -63.33231 | 4896 ft | 290 kts | 82° |
| 2026-05-01 15:05 | 18.01170 | -63.31145 | 4106 ft | 286 kts | 82° |
| 2026-05-01 15:06 | 18.01428 | -63.29131 | 3434 ft | 278 kts | 88° |
| 2026-05-01 15:06 | 18.01348 | -63.27146 | 2873 ft | 267 kts | 101° |
| 2026-05-01 15:06 | 18.00819 | -63.25358 | 2600 ft | 246 kts | 116° |
| 2026-05-01 15:06 | 17.99931 | -63.23889 | 2615 ft | 239 kts | 130° |
| 2026-05-01 15:07 | 17.98731 | -63.22704 | 2609 ft | 238 kts | 144° |
| 2026-05-01 15:07 | 17.97266 | -63.21865 | 2610 ft | 238 kts | 159° |
| 2026-05-01 15:07 | 17.95681 | -63.21451 | 2610 ft | 239 kts | 173° |
| 2026-05-01 15:07 | 17.94010 | -63.21474 | 2610 ft | 241 kts | 187° |
| 2026-05-01 15:08 | 17.92381 | -63.21892 | 2612 ft | 242 kts | 195° |
| 2026-05-01 15:08 | 17.90836 | -63.22571 | 2602 ft | 244 kts | 213° |
| 2026-05-01 15:08 | 17.89629 | -63.23820 | 2615 ft | 246 kts | 234° |
| 2026-05-01 15:08 | 17.88849 | -63.25429 | 2612 ft | 249 kts | 250° |
| 2026-05-01 15:09 | 17.88422 | -63.27203 | 2612 ft | 249 kts | 258° |
| 2026-05-01 15:09 | 17.88142 | -63.29003 | 2609 ft | 250 kts | 260° |